Time;durP1;ratioP1;P1;durP2;ratioP2;P2;SDS_P1;SDS_P2;PMS_P1;PMS_P2;Temp;Humidity;BMP_temperature;BMP_pressure;BME280_temperature;BME280_humidity;BME280_pressure;Samples;Min_cycle;Max_cycle;Signal;HPM_P1;HPM_P2
2021/10/02 00:36:01;;;;;;;3.53;2.00;;;;;;;12.63;100.00;100764.22;7402745;19;20376;-57
2021/10/02 00:41:21;;;;;;;5.30;2.00;;;;;;;12.68;100.00;100760.06;7403246;19;20380;-53
2021/10/02 00:46:35;;;;;;;4.23;2.17;;;;;;;12.66;100.00;100765.19;7403038;19;20409;-52
2021/10/02 00:49:04;;;;;;;3.80;2.37;;;;;;;12.66;100.00;100764.28;7403224;19;20399;-56
2021/10/02 00:51:37;;;;;;;7.60;2.37;;;;;;;12.62;100.00;100760.72;7396492;19;20459;-56
2021/10/02 00:54:07;;;;;;;3.40;2.13;;;;;;;12.56;100.00;100771.75;7400292;19;20411;-54
2021/10/02 00:56:37;;;;;;;2.97;1.77;;;;;;;12.51;100.00;100762.97;7394577;19;20419;-54
2021/10/02 00:59:09;;;;;;;9.60;2.60;;;;;;;12.49;100.00;100754.28;7401745;19;20392;-55
2021/10/02 01:01:45;;;;;;;2.10;1.63;;;;;;;12.50;100.00;100763.78;7396813;19;20425;-54
2021/10/02 01:04:20;;;;;;;4.10;2.20;;;;;;;12.39;100.00;100759.94;7400262;19;20866;-56
2021/10/02 01:06:57;;;;;;;4.37;1.90;;;;;;;12.36;100.00;100765.03;7394419;19;20497;-54
2021/10/02 01:09:41;;;;;;;3.30;2.10;;;;;;;12.31;100.00;100761.41;7402597;19;20387;-54
2021/10/02 01:12:17;;;;;;;5.20;2.43;;;;;;;12.49;100.00;100756.88;7395837;19;20482;-55
2021/10/02 01:14:53;;;;;;;3.00;2.23;;;;;;;12.42;100.00;100750.59;7402127;19;20395;-55
2021/10/02 01:17:27;;;;;;;5.30;2.27;;;;;;;12.41;100.00;100751.41;7397604;19;20426;-54
2021/10/02 01:20:05;;;;;;;5.13;2.50;;;;;;;12.45;100.00;100748.94;7401256;19;20387;-56
2021/10/02 01:22:51;;;;;;;3.77;2.00;;;;;;;12.31;100.00;100745.88;7394250;19;20435;-56
2021/10/02 01:25:30;;;;;;;5.13;2.17;;;;;;;12.39;100.00;100749.59;7399355;19;20420;-54
2021/10/02 01:28:04;;;;;;;6.43;2.53;;;;;;;12.36;100.00;100742.63;7395010;19;20418;-55
2021/10/02 01:30:49;;;;;;;8.93;2.67;;;;;;;12.32;100.00;100737.28;7401834;19;20641;-55
2021/10/02 01:33:28;;;;;;;6.40;2.50;;;;;;;12.38;100.00;100737.50;7375061;19;20423;-55
2021/10/02 01:36:07;;;;;;;4.33;2.23;;;;;;;12.45;100.00;100738.59;7400363;19;20905;-52
2021/10/02 01:49:29;;;;;;;4.70;2.57;;;;;;;12.45;100.00;100713.59;7401666;19;20390;-55
2021/10/02 01:51:59;;;;;;;4.00;2.73;;;;;;;12.45;100.00;100721.34;7393647;19;20491;-57
2021/10/02 01:54:29;;;;;;;3.70;2.60;;;;;;;12.53;100.00;100719.91;7397797;19;20482;-55
2021/10/02 01:56:59;;;;;;;5.83;2.77;;;;;;;12.49;100.00;100728.41;7392689;19;20487;-55
2021/10/02 01:59:32;;;;;;;6.07;2.80;;;;;;;12.54;100.00;100724.25;7401147;19;20460;-54
2021/10/02 02:02:03;;;;;;;6.40;2.43;;;;;;;12.53;100.00;100722.50;7397745;19;20482;-54
2021/10/02 02:04:34;;;;;;;5.13;3.07;;;;;;;12.43;100.00;100730.78;7399115;19;20440;-53
2021/10/02 02:07:04;;;;;;;8.90;2.60;;;;;;;12.34;100.00;100725.28;7373188;19;20468;-53
2021/10/02 02:09:39;;;;;;;4.67;3.10;;;;;;;12.50;100.00;100722.38;7398160;19;20409;-57
2021/10/02 02:12:13;;;;;;;11.70;4.10;;;;;;;12.58;100.00;100721.75;7393441;19;20490;-55
2021/10/02 02:14:47;;;;;;;6.40;3.27;;;;;;;12.41;100.00;100725.53;7397826;19;20426;-53
2021/10/02 02:17:18;;;;;;;5.03;3.60;;;;;;;12.45;100.00;100729.13;7374757;19;20482;-53
2021/10/02 02:19:49;;;;;;;5.10;3.63;;;;;;;12.42;100.00;100729.88;7399967;19;20647;-55
2021/10/02 02:22:18;;;;;;;10.57;3.87;;;;;;;12.41;100.00;100724.69;7394113;19;20561;-55
2021/10/02 02:24:48;;;;;;;10.80;3.90;;;;;;;12.32;100.00;100727.84;7399813;19;20388;-56
2021/10/02 02:27:17;;;;;;;10.70;3.60;;;;;;;12.27;100.00;100730.25;7392470;19;20423;-55
2021/10/02 02:29:50;;;;;;;5.60;3.40;;;;;;;12.29;100.00;100735.47;7399609;19;20400;-53
2021/10/02 02:32:20;;;;;;;5.43;3.30;;;;;;;12.26;100.00;100731.06;7398169;19;20887;-56
2021/10/02 02:34:50;;;;;;;6.40;3.87;;;;;;;12.27;100.00;100730.25;7399685;19;20387;-56
2021/10/02 02:37:19;;;;;;;5.40;3.70;;;;;;;12.28;100.00;100726.84;7392841;19;20475;-54
2021/10/02 02:39:49;;;;;;;6.40;3.53;;;;;;;12.29;100.00;100731.19;7399732;19;20395;-55
2021/10/02 02:42:19;;;;;;;7.97;3.90;;;;;;;12.32;100.00;100725.25;7392640;19;20701;-53
2021/10/02 02:44:51;;;;;;;9.33;3.90;;;;;;;12.30;100.00;100716.53;7401908;19;20456;-55
2021/10/02 02:47:24;;;;;;;7.93;4.60;;;;;;;12.29;100.00;100713.09;7396122;19;20456;-57
2021/10/02 02:49:57;;;;;;;7.13;4.30;;;;;;;12.34;100.00;100718.41;7399215;19;20451;-53
2021/10/02 02:52:29;;;;;;;8.60;4.63;;;;;;;12.36;100.00;100718.47;7391942;19;20486;-55
2021/10/02 02:55:05;;;;;;;11.27;4.40;;;;;;;12.34;100.00;100720.09;7399262;19;20400;-56
2021/10/02 02:57:45;;;;;;;11.53;5.33;;;;;;;12.38;100.00;100717.69;7391848;19;20436;-54
2021/10/02 03:00:18;;;;;;;14.07;4.37;;;;;;;12.38;100.00;100721.97;7399249;19;20408;-53
2021/10/02 03:02:52;;;;;;;9.00;4.53;;;;;;;12.39;100.00;100723.72;7393812;19;20431;-57
2021/10/02 03:05:23;;;;;;;8.00;4.40;;;;;;;12.45;100.00;100718.75;7398718;19;20398;-57
2021/10/02 03:07:57;;;;;;;8.67;4.83;;;;;;;12.33;100.00;100719.25;7392026;19;20943;-53
2021/10/02 03:10:27;;;;;;;9.83;5.37;;;;;;;12.36;100.00;100719.34;7398051;19;20391;-57
2021/10/02 03:12:57;;;;;;;8.10;4.70;;;;;;;12.41;100.00;100702.25;7391497;19;20445;-57
2021/10/02 03:15:30;;;;;;;8.03;5.13;;;;;;;12.38;100.00;100711.63;7398237;19;20465;-57
2021/10/02 03:18:00;;;;;;;8.07;4.87;;;;;;;12.35;100.00;100711.53;7394976;19;20428;-58
2021/10/02 03:20:31;;;;;;;8.87;5.37;;;;;;;12.42;100.00;100716.94;7398350;19;20379;-53
2021/10/02 03:23:01;;;;;;;10.57;4.93;;;;;;;12.36;100.00;100708.97;7397851;19;20911;-55
2021/10/02 03:25:32;;;;;;;8.53;5.30;;;;;;;12.34;100.00;100720.09;7405272;19;20387;-57
2021/10/02 03:28:03;;;;;;;8.17;5.27;;;;;;;12.35;100.00;100708.94;7398801;19;20495;-54
2021/10/02 03:30:35;;;;;;;12.53;5.43;;;;;;;12.35;100.00;100711.53;7405963;19;20451;-57
2021/10/02 03:33:05;;;;;;;8.70;4.70;;;;;;;12.42;100.00;100713.50;7401777;19;20945;-57
2021/10/02 03:35:35;;;;;;;11.00;5.30;;;;;;;12.37;100.00;100715.06;7405294;19;20451;-54
2021/10/02 03:38:04;;;;;;;11.20;5.67;;;;;;;12.40;100.00;100717.72;7398140;19;20427;-56
2021/10/02 03:40:34;;;;;;;8.43;4.90;;;;;;;12.36;100.00;100718.47;7405353;19;20388;-57
2021/10/02 03:43:03;;;;;;;9.47;5.70;;;;;;;12.38;100.00;100716.81;7397542;19;20420;-55
2021/10/02 03:45:36;;;;;;;10.20;5.87;;;;;;;12.37;100.00;100712.47;7403651;19;20397;-55
2021/10/02 03:48:06;;;;;;;12.43;6.20;;;;;;;12.40;100.00;100712.56;7397785;19;20446;-55
2021/10/02 03:50:36;;;;;;;12.03;5.87;;;;;;;12.40;100.00;100709.97;7405194;19;20459;-55
2021/10/02 03:53:06;;;;;;;11.60;5.90;;;;;;;12.37;100.00;100709.88;7397595;19;20439;-56
2021/10/02 03:55:36;;;;;;;14.93;7.10;;;;;;;12.49;100.00;100699.94;7404391;19;20863;-57
2021/10/02 03:58:06;;;;;;;11.50;6.10;;;;;;;12.44;100.00;100696.31;7397049;19;20447;-57
2021/10/02 04:00:38;;;;;;;14.00;6.93;;;;;;;12.46;100.00;100684.28;7404902;19;20383;-55
2021/10/02 04:03:07;;;;;;;11.50;6.07;;;;;;;12.46;100.00;100691.19;7399148;19;20721;-52
2021/10/02 04:05:37;;;;;;;11.13;6.43;;;;;;;12.40;100.00;100686.69;7404146;19;20391;-51
2021/10/02 04:08:07;;;;;;;16.70;7.60;;;;;;;12.40;100.00;100689.25;7397780;19;20440;-55
2021/10/02 04:10:36;;;;;;;10.93;7.17;;;;;;;12.43;100.00;100684.22;7404544;19;20387;-54
2021/10/02 04:13:06;;;;;;;14.30;7.90;;;;;;;12.42;100.00;100687.63;7395964;19;21271;-57
2021/10/02 04:15:38;;;;;;;12.53;6.90;;;;;;;12.45;100.00;100689.44;7403480;19;20396;-54
2021/10/02 04:18:07;;;;;;;17.40;7.80;;;;;;;12.44;100.00;100696.31;7397812;19;20426;-53
2021/10/02 04:20:37;;;;;;;11.50;7.03;;;;;;;12.44;100.00;100691.13;7405025;19;20391;-54
2021/10/02 04:23:06;;;;;;;13.07;7.23;;;;;;;12.42;100.00;100693.66;7396424;19;20419;-56
2021/10/02 04:25:36;;;;;;;12.23;7.10;;;;;;;12.47;100.00;100682.59;7403716;19;20392;-54
2021/10/02 04:28:06;;;;;;;11.70;7.60;;;;;;;12.47;100.00;100685.19;7396824;19;20491;-54
2021/10/02 04:30:38;;;;;;;14.57;7.57;;;;;;;12.52;100.00;100686.22;7403307;19;20444;-53
2021/10/02 04:33:07;;;;;;;13.60;7.70;;;;;;;12.55;100.00;100683.72;7398780;19;20411;-54
2021/10/02 04:35:37;;;;;;;12.23;7.10;;;;;;;12.51;100.00;100685.31;7402479;19;20467;-55
2021/10/02 04:38:07;;;;;;;11.53;6.97;;;;;;;12.56;100.00;100688.06;7396606;19;20417;-56
2021/10/02 04:40:36;;;;;;;16.37;7.30;;;;;;;12.55;100.00;100684.63;7403709;19;21208;-52
2021/10/02 04:43:05;;;;;;;13.77;7.90;;;;;;;12.58;100.00;100690.69;7396103;19;20514;-52
2021/10/02 04:45:37;;;;;;;12.57;7.47;;;;;;;12.59;100.00;100685.59;7403066;19;20388;-56
2021/10/02 04:48:08;;;;;;;13.93;7.13;;;;;;;12.59;100.00;100680.41;7395996;19;20411;-52
2021/10/02 04:50:37;;;;;;;14.50;7.10;;;;;;;12.58;100.00;100682.94;7405272;19;20479;-56
2021/10/02 04:53:07;;;;;;;12.80;7.30;;;;;;;12.59;100.00;100682.09;7395475;19;20417;-56
2021/10/02 04:55:36;;;;;;;12.63;6.40;;;;;;;12.64;100.00;100685.72;7405308;19;20410;-55
2021/10/02 04:58:06;;;;;;;10.60;6.93;;;;;;;12.63;100.00;100684.88;7396391;19;20440;-53
2021/10/02 05:00:38;;;;;;;12.00;7.30;;;;;;;12.72;100.00;100685.97;7402802;19;20850;-52
2021/10/02 05:03:07;;;;;;;11.63;6.67;;;;;;;12.75;100.00;100683.47;7398871;19;20415;-54
2021/10/02 05:05:37;;;;;;;12.27;7.20;;;;;;;12.72;100.00;100686.84;7402215;19;20467;-56
2021/10/02 05:08:06;;;;;;;11.77;7.87;;;;;;;12.63;100.00;100682.28;7395260;19;20419;-56
2021/10/02 05:10:36;;;;;;;11.60;7.30;;;;;;;12.75;100.00;100680.88;7402448;19;20388;-58
2021/10/02 05:13:05;;;;;;;11.43;8.07;;;;;;;12.56;100.00;100683.78;7394359;19;20794;-55
2021/10/02 05:15:38;;;;;;;13.83;7.97;;;;;;;12.60;100.00;100687.34;7402071;19;20468;-54
2021/10/02 05:18:07;;;;;;;16.40;8.80;;;;;;;12.62;100.00;100689.97;7399496;19;20421;-56
2021/10/02 05:20:37;;;;;;;14.43;8.70;;;;;;;12.60;100.00;100686.47;7402301;19;20464;-55
2021/10/02 05:23:06;;;;;;;15.47;9.10;;;;;;;12.53;100.00;100688.88;7394433;19;20495;-56
2021/10/02 05:25:36;;;;;;;19.03;9.60;;;;;;;12.49;100.00;100689.59;7401102;19;20406;-52
2021/10/02 05:28:06;;;;;;;18.30;9.77;;;;;;;12.46;100.00;100686.88;7392800;19;20510;-54
2021/10/02 05:30:38;;;;;;;17.33;9.63;;;;;;;12.50;100.00;100691.34;7401949;19;20833;-58
2021/10/02 05:33:08;;;;;;;16.03;9.50;;;;;;;12.51;100.00;100695.69;7398015;19;20865;-53
2021/10/02 05:35:38;;;;;;;17.90;10.23;;;;;;;12.52;100.00;100707.78;7401255;19;20416;-56
2021/10/02 05:38:07;;;;;;;16.57;9.60;;;;;;;12.50;100.00;100706.88;7396511;19;20673;-58
2021/10/02 05:40:37;;;;;;;18.30;9.73;;;;;;;12.49;100.00;100710.28;7401753;19;20407;-55
2021/10/02 05:43:06;;;;;;;18.80;10.30;;;;;;;12.50;100.00;100724.97;7393275;19;20690;-52
2021/10/02 05:45:38;;;;;;;16.27;10.27;;;;;;;12.45;100.00;100721.34;7399841;19;20395;-55
2021/10/02 05:48:08;;;;;;;16.30;9.47;;;;;;;12.35;100.00;100725.34;7387177;19;20720;-52
2021/10/02 05:50:39;;;;;;;21.30;10.43;;;;;;;12.34;100.00;100725.28;7401165;19;20669;-53
2021/10/02 05:53:09;;;;;;;18.17;10.30;;;;;;;12.32;100.00;100721.78;7393784;19;20407;-53
2021/10/02 05:55:38;;;;;;;18.27;9.23;;;;;;;12.26;100.00;100723.31;7400899;19;20422;-56
2021/10/02 05:58:08;;;;;;;17.67;9.40;;;;;;;12.29;100.00;100720.84;7394208;19;20435;-55
2021/10/02 06:00:40;;;;;;;18.20;9.90;;;;;;;12.33;100.00;100726.13;7400857;19;20391;-55
2021/10/02 06:03:09;;;;;;;21.97;9.50;;;;;;;12.20;100.00;100738.63;7396044;19;20439;-54
2021/10/02 06:05:39;;;;;;;16.60;9.30;;;;;;;12.16;100.00;100736.78;7400213;19;20880;-55
2021/10/02 06:08:09;;;;;;;22.77;10.10;;;;;;;12.24;100.00;100742.19;7392328;19;20446;-52
2021/10/02 06:10:38;;;;;;;18.50;10.03;;;;;;;12.20;100.00;100737.75;7400698;19;20398;-54
2021/10/02 06:13:07;;;;;;;20.27;9.73;;;;;;;12.19;100.00;100723.06;7392952;19;20499;-55
2021/10/02 06:15:39;;;;;;;26.73;12.67;;;;;;;12.22;100.00;100721.47;7399945;19;20467;-56
2021/10/02 06:18:09;;;;;;;25.17;11.43;;;;;;;12.26;100.00;100722.47;7393944;19;20738;-56
2021/10/02 06:20:38;;;;;;;19.93;11.90;;;;;;;12.32;100.00;100722.66;7399764;19;20388;-56
2021/10/02 06:23:08;;;;;;;20.00;10.40;;;;;;;12.26;100.00;100731.06;7392175;19;20419;-53
2021/10/02 06:25:38;;;;;;;22.07;10.57;;;;;;;12.32;100.00;100724.34;7399512;19;20386;-52
2021/10/02 06:28:08;;;;;;;21.50;10.97;;;;;;;12.33;100.00;100724.41;7392471;19;20770;-57
2021/10/02 06:30:40;;;;;;;19.63;9.93;;;;;;;12.34;100.00;100728.75;7403492;19;20471;-54
2021/10/02 06:33:09;;;;;;;26.67;10.43;;;;;;;12.35;100.00;100721.88;7394192;19;20873;-54
2021/10/02 06:35:39;;;;;;;23.23;10.87;;;;;;;12.34;100.00;100722.69;7399248;19;20451;-55
2021/10/02 06:38:08;;;;;;;25.60;11.80;;;;;;;12.33;100.00;100728.69;7391871;19;20503;-54
2021/10/02 06:40:40;;;;;;;25.30;10.70;;;;;;;12.29;100.00;100728.63;7399221;19;20388;-55
2021/10/02 06:43:09;;;;;;;21.40;10.60;;;;;;;12.32;100.00;100730.44;7392124;19;20435;-52
2021/10/02 06:45:42;;;;;;;21.60;11.23;;;;;;;12.36;100.00;100734.00;7398996;19;20410;-53
2021/10/02 06:48:12;;;;;;;22.60;11.83;;;;;;;12.35;100.00;100737.41;7392137;19;20455;-53
2021/10/02 06:50:41;;;;;;;28.30;12.70;;;;;;;12.41;100.00;100737.63;7399352;19;20451;-57
2021/10/02 06:53:11;;;;;;;22.17;11.00;;;;;;;12.37;100.00;100746.97;7391408;19;20788;-56
2021/10/02 06:55:41;;;;;;;23.20;10.87;;;;;;;12.33;100.00;100755.47;7400348;19;20467;-54
2021/10/02 06:58:10;;;;;;;20.67;9.80;;;;;;;12.34;100.00;100752.03;7391463;19;20432;-54
2021/10/02 07:00:42;;;;;;;26.00;13.07;;;;;;;12.40;100.00;100748.78;7399227;19;20447;-53
2021/10/02 07:03:12;;;;;;;22.63;10.50;;;;;;;12.35;100.00;100747.75;7394882;19;20403;-56
2021/10/02 07:05:42;;;;;;;32.33;13.70;;;;;;;12.43;100.00;100751.47;7398478;19;20720;-55
2021/10/02 07:08:11;;;;;;;23.10;11.57;;;;;;;12.39;100.00;100736.66;7391463;19;20498;-56
2021/10/02 07:10:41;;;;;;;29.10;12.37;;;;;;;12.42;100.00;100744.56;7399037;19;20704;-57
2021/10/02 07:13:11;;;;;;;27.63;12.53;;;;;;;12.51;100.00;100738.81;7390937;19;20437;-56
2021/10/02 07:15:43;;;;;;;26.60;12.67;;;;;;;12.57;100.00;100731.25;7397120;19;20447;-57
2021/10/02 07:18:16;;;;;;;25.60;12.60;;;;;;;12.47;100.00;100732.66;7392059;19;20722;-55
2021/10/02 07:20:46;;;;;;;24.63;12.70;;;;;;;12.46;100.00;100733.47;7398935;19;20388;-58
2021/10/02 07:23:19;;;;;;;24.17;12.73;;;;;;;12.44;100.00;100740.31;7390992;19;20423;-55
2021/10/02 07:25:49;;;;;;;26.40;10.17;;;;;;;12.34;100.00;100736.53;7398099;19;20705;-52
2021/10/02 07:28:18;;;;;;;24.43;12.30;;;;;;;12.42;100.00;100739.38;7393075;19;20730;-57
2021/10/02 07:30:50;;;;;;;24.20;13.30;;;;;;;12.46;100.00;100750.72;7400289;19;20404;-56
2021/10/02 07:33:20;;;;;;;29.27;15.17;;;;;;;12.52;100.00;100749.19;7394756;19;20467;-56
2021/10/02 07:35:49;;;;;;;30.47;13.40;;;;;;;12.47;100.00;100745.59;7397660;19;20387;-56
2021/10/02 07:38:19;;;;;;;30.47;14.67;;;;;;;12.49;100.00;100748.22;7390642;19;20432;-57
2021/10/02 07:40:50;;;;;;;26.70;13.23;;;;;;;12.50;100.00;100744.78;7397940;19;20850;-53
2021/10/02 07:43:21;;;;;;;24.10;12.77;;;;;;;12.53;100.00;100752.66;7390180;19;20461;-53
2021/10/02 07:45:53;;;;;;;27.10;12.73;;;;;;;12.53;100.00;100742.31;7400538;19;20394;-54
2021/10/02 07:48:24;;;;;;;21.03;11.57;;;;;;;12.51;100.00;100747.44;7390763;19;20419;-54
2021/10/02 07:50:55;;;;;;;21.90;12.83;;;;;;;12.56;100.00;100732.06;7396807;19;20388;-53
2021/10/02 07:53:25;;;;;;;54.13;18.77;;;;;;;12.69;100.00;100723.88;7387378;19;20443;-50
2021/10/02 07:55:56;;;;;;;28.57;15.60;;;;;;;12.77;100.00;100736.19;7396943;19;20410;-53
2021/10/02 07:58:25;;;;;;;24.53;12.23;;;;;;;12.86;100.00;100733.03;7390638;19;20511;-50
2021/10/02 08:00:59;;;;;;;21.57;11.63;;;;;;;12.78;100.00;100732.78;7397260;19;20394;-52
2021/10/02 08:03:28;;;;;;;21.87;12.50;;;;;;;12.81;100.00;100731.16;7395530;19;20447;-53
2021/10/02 08:05:58;;;;;;;23.30;12.77;;;;;;;12.99;100.00;100722.22;7396615;19;20394;-50
2021/10/02 08:08:27;;;;;;;24.23;12.13;;;;;;;12.90;100.00;100711.56;7394577;19;20499;-54
2021/10/02 08:10:57;;;;;;;22.80;11.03;;;;;;;12.82;100.00;100703.56;7405877;19;20411;-52
2021/10/02 08:13:26;;;;;;;25.00;11.90;;;;;;;12.81;100.00;100709.56;7395656;19;20407;-53
2021/10/02 08:16:01;;;;;;;27.53;14.33;;;;;;;12.96;100.00;100701.41;7403627;19;20410;-55
2021/10/02 08:18:36;;;;;;;21.30;12.10;;;;;;;13.09;100.00;100697.50;7397512;19;20414;-52
2021/10/02 08:21:08;;;;;;;30.93;14.80;;;;;;;13.12;100.00;100700.16;7401573;19;20866;-53
2021/10/02 08:23:39;;;;;;;18.00;11.10;;;;;;;13.14;100.00;100690.75;7395928;19;20483;-52
2021/10/02 08:26:14;;;;;;;27.43;12.50;;;;;;;13.23;100.00;100690.13;7403377;19;20451;-55
2021/10/02 08:28:47;;;;;;;23.23;14.10;;;;;;;13.23;100.00;100684.97;7400205;19;20482;-54
2021/10/02 08:31:24;;;;;;;34.30;14.97;;;;;;;13.31;100.00;100693.81;7399115;19;20808;-51
2021/10/02 08:33:54;;;;;;;22.67;12.07;;;;;;;13.35;100.00;100703.44;7405717;19;20475;-51
2021/10/02 08:36:23;;;;;;;18.00;11.17;;;;;;;13.19;100.00;100701.22;7396579;19;20463;-57
2021/10/02 08:38:53;;;;;;;20.90;12.53;;;;;;;13.19;100.00;100698.63;7403182;19;20459;-52
2021/10/02 08:41:25;;;;;;;20.13;11.90;;;;;;;13.15;100.00;100707.16;7396402;19;20654;-56
2021/10/02 08:43:55;;;;;;;21.00;13.00;;;;;;;13.19;100.00;100703.81;7400916;19;21064;-56
2021/10/02 08:46:28;;;;;;;18.80;11.90;;;;;;;13.09;100.00;100703.53;7374650;19;20399;-51
2021/10/02 08:49:15;;;;;;;18.70;11.90;;;;;;;13.12;100.00;100710.50;7401135;19;20384;-57
2021/10/02 08:51:47;;;;;;;23.40;11.33;;;;;;;13.11;100.00;100716.53;7396367;19;20419;-51
2021/10/02 08:54:20;;;;;;;18.57;12.13;;;;;;;13.10;100.00;100725.13;7400868;19;20487;-56
2021/10/02 08:56:51;;;;;;;21.13;11.30;;;;;;;13.03;100.00;100718.88;7394291;19;20478;-53
2021/10/02 08:59:25;;;;;;;25.67;13.27;;;;;;;13.05;100.00;100722.41;7398877;19;20489;-54
2021/10/02 09:01:57;;;;;;;19.30;12.60;;;;;;;13.19;100.00;100719.38;7396407;19;20429;-51
2021/10/02 09:04:27;;;;;;;17.00;11.40;;;;;;;13.07;100.00;100719.84;7396203;19;20462;-52
2021/10/02 09:06:57;;;;;;;17.80;10.93;;;;;;;13.10;100.00;100704.41;7392960;19;20458;-54
2021/10/02 09:09:26;;;;;;;16.83;10.50;;;;;;;13.14;100.00;100705.38;7400107;19;20592;-54
2021/10/02 09:11:56;;;;;;;15.73;9.80;;;;;;;13.30;100.00;100705.03;7392756;19;20419;-54
2021/10/02 09:14:25;;;;;;;16.07;10.13;;;;;;;13.34;100.00;100704.25;7398303;19;20407;-51
2021/10/02 09:16:57;;;;;;;20.23;9.10;;;;;;;13.27;100.00;100701.47;7392812;19;20894;-51
2021/10/02 09:19:27;;;;;;;14.20;9.40;;;;;;;13.50;100.00;100699.59;7399602;19;20661;-53
2021/10/02 09:22:01;;;;;;;17.13;10.03;;;;;;;13.56;100.00;100710.13;7391913;19;20423;-55
2021/10/02 09:24:33;;;;;;;18.77;9.40;;;;;;;13.61;100.00;100707.66;7397359;19;20426;-55
2021/10/02 09:27:03;;;;;;;10.53;9.10;;;;;;;13.73;100.00;100694.16;7392561;19;20425;-56
2021/10/02 09:29:43;;;;;;;13.60;7.90;;;;;;;13.77;100.00;100683.94;7398855;19;20859;-53
2021/10/02 09:32:18;;;;;;;11.43;8.20;;;;;;;13.73;100.00;100676.00;7396922;19;20469;-55
2021/10/02 09:34:50;;;;;;;13.73;8.60;;;;;;;13.71;100.00;100668.19;7397507;19;20391;-52
2021/10/02 09:37:26;;;;;;;15.77;8.43;;;;;;;13.76;100.00;100666.59;7392409;19;20446;-54
2021/10/02 09:40:00;;;;;;;24.07;13.70;;;;;;;14.00;100.00;100662.03;7403446;19;20462;-54
2021/10/02 09:42:35;;;;;;;10.97;6.87;;;;;;;14.16;100.00;100655.53;7393634;19;20491;-54
2021/10/02 09:45:08;;;;;;;14.80;8.00;;;;;;;14.10;100.00;100651.03;7404420;19;20409;-55
2021/10/02 09:47:42;;;;;;;17.50;9.77;;;;;;;14.09;100.00;100638.91;7397696;19;20782;-54
2021/10/02 09:50:14;;;;;;;16.37;8.27;;;;;;;14.24;100.00;100629.75;7399754;19;20455;-57
2021/10/02 09:52:45;;;;;;;9.03;6.70;;;;;;;14.20;100.00;100623.63;7390774;19;20904;-57
2021/10/02 09:55:25;;;;;;;21.07;12.20;;;;;;;14.17;100.00;100632.19;7404822;19;20665;-56
2021/10/02 09:57:57;;;;;;;23.30;12.40;;;;;;;14.22;100.00;100629.75;7392658;19;20739;-56
2021/10/02 10:00:28;;;;;;;22.60;12.43;;;;;;;14.11;100.00;100631.19;7399336;19;20388;-54
2021/10/02 10:03:01;;;;;;;16.20;9.40;;;;;;;14.23;100.00;100635.78;7396515;19;20443;-57
2021/10/02 10:05:33;;;;;;;12.10;8.10;;;;;;;14.23;100.00;100628.00;7399756;19;20837;-52
2021/10/02 10:08:05;;;;;;;10.40;7.90;;;;;;;14.29;100.00;100622.97;7393260;19;20487;-55
2021/10/02 10:10:36;;;;;;;15.73;9.63;;;;;;;14.37;100.00;100624.06;7402800;19;20724;-55
2021/10/02 10:13:07;;;;;;;12.83;7.20;;;;;;;14.49;100.00;100626.03;7391911;19;20423;-53
2021/10/02 10:15:39;;;;;;;11.80;7.50;;;;;;;14.64;100.00;100628.13;7398896;19;20398;-56
2021/10/02 10:18:13;;;;;;;17.73;10.50;;;;;;;14.63;100.00;100621.19;7365041;19;20431;-55
2021/10/02 10:20:46;;;;;;;12.17;6.40;;;;;;;14.70;100.00;100623.06;7400196;19;20387;-54
2021/10/02 10:23:15;;;;;;;8.80;5.60;;;;;;;14.58;100.00;100617.59;7392330;19;20688;-56
2021/10/02 10:25:53;;;;;;;15.10;6.80;;;;;;;14.89;100.00;100626.13;7399418;19;20746;-55
2021/10/02 10:28:24;;;;;;;22.30;9.13;;;;;;;14.98;100.00;100615.91;7392762;19;21083;-57
2021/10/02 10:30:54;;;;;;;14.47;6.80;;;;;;;14.98;100.00;100615.91;7397185;19;20394;-57
2021/10/02 10:33:26;;;;;;;18.50;9.60;;;;;;;14.69;100.00;100623.91;7385127;19;20447;-54
2021/10/02 10:35:56;;;;;;;13.53;7.80;;;;;;;14.74;100.00;100615.34;7397109;19;20388;-56
2021/10/02 10:38:26;;;;;;;12.60;8.00;;;;;;;14.62;100.00;100614.25;7392124;19;20415;-57
2021/10/02 10:40:56;;;;;;;9.03;5.67;;;;;;;14.66;100.00;100608.25;7399330;19;20859;-56
2021/10/02 10:43:27;;;;;;;8.70;5.97;;;;;;;14.66;100.00;100616.03;7389699;19;20507;-57
2021/10/02 10:45:56;;;;;;;16.17;6.37;;;;;;;14.55;100.00;100620.09;7402187;19;20404;-56
2021/10/02 10:48:29;;;;;;;9.50;6.40;;;;;;;14.60;100.00;100621.09;7371129;19;20883;-57
2021/10/02 10:51:03;;;;;;;11.70;6.17;;;;;;;14.62;100.00;100615.94;7396814;19;20467;-57
2021/10/02 10:53:37;;;;;;;10.07;7.00;;;;;;;14.64;100.00;100622.94;7390380;19;20526;-52
2021/10/02 10:56:08;;;;;;;14.00;8.53;;;;;;;14.70;100.00;100622.19;7399847;19;20399;-54
2021/10/02 10:58:37;;;;;;;11.37;6.33;;;;;;;14.82;100.00;100622.50;7395021;19;20434;-54
2021/10/02 11:01:14;;;;;;;8.63;4.90;;;;;;;14.87;100.00;100626.91;7403260;19;20391;-53
2021/10/02 11:03:48;;;;;;;12.13;6.80;;;;;;;14.82;100.00;100626.81;7401141;19;20427;-57
2021/10/02 11:06:20;;;;;;;9.50;5.80;;;;;;;14.99;100.00;100619.41;7384279;19;20400;-57
2021/10/02 11:09:07;;;;;;;10.40;5.13;;;;;;;14.94;100.00;100616.69;7398728;19;20392;-55
2021/10/02 11:12:00;;;;;;;6.67;4.50;;;;;;;14.95;100.00;100617.56;7388459;19;20409;-54
2021/10/02 11:14:59;;;;;;;8.77;4.63;;;;;;;14.95;100.00;100618.44;7396774;19;20455;-53
2021/10/02 11:17:45;;;;;;;12.13;6.33;;;;;;;15.11;100.00;100613.56;7390877;19;20675;-55
2021/10/02 11:20:34;;;;;;;8.17;4.20;;;;;;;15.14;100.00;100613.66;7398479;19;20849;-54
2021/10/02 11:23:33;;;;;;;29.00;9.70;;;;;;;15.12;100.00;100610.13;7390745;19;20422;-54
2021/10/02 11:26:22;;;;;;;12.30;6.60;;;;;;;15.17;100.00;100608.50;7396538;19;20394;-54
2021/10/02 11:28:54;;;;;;;8.37;4.30;;;;;;;15.19;100.00;100611.13;7396861;19;20418;-53
2021/10/02 11:31:25;;;;;;;8.83;5.13;;;;;;;15.20;100.00;100608.56;7379876;19;20380;-52
2021/10/02 11:33:55;;;;;;;19.67;7.57;;;;;;;15.18;100.00;100601.59;7396363;19;20430;-54
2021/10/02 11:36:46;;;;;;;7.37;4.17;;;;;;;15.27;100.00;100600.91;7385835;19;20390;-55
2021/10/02 11:39:21;;;;;;;32.83;6.10;;;;;;;15.17;100.00;100598.09;7397832;19;20396;-53
2021/10/02 11:41:53;;;;;;;19.60;7.93;;;;;;;15.14;100.00;100587.66;7370685;19;21003;-56
2021/10/02 11:44:25;;;;;;;8.17;4.20;;;;;;;15.19;100.00;100596.44;7400564;19;20511;-56
2021/10/02 11:46:57;;;;;;;9.17;4.17;;;;;;;15.30;100.00;100594.03;7374657;19;20474;-54
2021/10/02 11:49:27;;;;;;;20.70;7.47;;;;;;;15.46;100.00;100584.81;7404297;19;20400;-53
2021/10/02 11:52:13;;;;;;;13.77;5.83;;;;;;;15.46;100.00;100574.41;7395363;19;20407;-55
2021/10/02 11:54:43;;;;;;;7.53;3.50;;;;;;;15.35;100.00;100576.81;7404953;19;20431;-52
2021/10/02 11:57:15;;;;;;;10.40;4.77;;;;;;;15.34;100.00;100575.03;7399924;19;20421;-52
2021/10/02 11:59:45;;;;;;;13.70;5.10;;;;;;;15.41;100.00;100570.84;7406944;19;20463;-50
2021/10/02 12:02:17;;;;;;;9.20;4.77;;;;;;;15.50;100.00;100564.94;7401852;19;20410;-52
2021/10/02 12:04:52;;;;;;;8.40;4.70;;;;;;;15.60;100.00;100559.06;7402446;19;20502;-50
2021/10/02 12:07:24;;;;;;;9.03;4.33;;;;;;;15.77;100.00;100554.16;7396426;19;20900;-56
2021/10/02 12:09:58;;;;;;;8.50;4.53;;;;;;;15.82;100.00;100540.34;7404218;19;20448;-56
2021/10/02 12:12:27;;;;;;;13.30;5.63;;;;;;;15.79;100.00;100552.44;7395935;19;20694;-54
2021/10/02 12:14:58;;;;;;;10.87;5.47;;;;;;;15.71;100.00;100548.84;7404162;19;20467;-56
2021/10/02 12:17:28;;;;;;;8.70;4.90;;;;;;;15.84;100.00;100543.88;7393198;19;20428;-55
2021/10/02 12:19:57;;;;;;;9.07;4.77;;;;;;;15.85;100.00;100551.66;7404026;19;20454;-57
2021/10/02 12:22:31;;;;;;;8.30;5.20;;;;;;;15.96;100.00;100544.09;7398821;19;20513;-54